createdAt,value
2023-03-07T00:00:02.452Z, 31.18
2023-03-07T00:01:02.436Z, 31.14
2023-03-07T00:02:02.445Z, 31.12
2023-03-07T00:03:02.635Z, 31.08
2023-03-07T00:04:02.612Z, 31.06
2023-03-07T00:05:02.527Z, 31.07
2023-03-07T00:06:02.526Z, 31.06
2023-03-07T00:07:02.516Z, 31.03
2023-03-07T00:08:02.502Z, 31.05
2023-03-07T00:09:02.507Z, 31.02
2023-03-07T00:10:02.557Z, 31.00
2023-03-07T00:11:02.545Z, 30.99
2023-03-07T00:12:02.517Z, 30.97
2023-03-07T00:13:02.567Z, 31.00
2023-03-07T00:14:02.577Z, 30.96
2023-03-07T00:15:02.553Z, 30.92
2023-03-07T00:16:02.712Z, 30.91
2023-03-07T00:17:02.601Z, 30.93
2023-03-07T00:18:02.607Z, 30.87
2023-03-07T00:19:02.628Z, 30.87
2023-03-07T00:20:02.632Z, 30.89
2023-03-07T00:21:02.654Z, 30.84
2023-03-07T00:22:02.619Z, 30.82
2023-03-07T00:23:02.633Z, 30.83
2023-03-07T00:24:02.632Z, 30.84
2023-03-07T00:25:02.648Z, 30.80
2023-03-07T00:26:02.642Z, 30.81
2023-03-07T00:27:02.710Z, 30.81
2023-03-07T00:28:02.708Z, 30.79
2023-03-07T00:29:02.753Z, 30.77
2023-03-07T00:30:02.702Z, 30.78
2023-03-07T00:31:02.738Z, 30.76
2023-03-07T00:32:02.784Z, 30.72
2023-03-07T00:34:02.719Z, 30.70
2023-03-07T00:34:07.319Z, 30.73
2023-03-07T00:35:02.710Z, 30.67
2023-03-07T00:36:02.767Z, 30.67
2023-03-07T00:37:02.807Z, 30.67
2023-03-07T00:38:02.794Z, 30.59
2023-03-07T00:39:02.784Z, 30.59
2023-03-07T00:40:02.849Z, 30.59
2023-03-07T00:41:02.786Z, 30.57
2023-03-07T00:42:02.792Z, 30.55
2023-03-07T00:43:02.875Z, 30.54
2023-03-07T00:44:02.843Z, 30.56
2023-03-07T00:45:02.883Z, 30.56
2023-03-07T00:46:02.957Z, 30.56
2023-03-07T00:47:02.858Z, 30.54
2023-03-07T00:48:02.850Z, 30.48
2023-03-07T00:49:02.930Z, 30.46
2023-03-07T00:50:02.943Z, 30.48
2023-03-07T00:51:02.961Z, 30.45
2023-03-07T00:52:02.933Z, 30.45
2023-03-07T00:53:02.955Z, 30.42
2023-03-07T00:54:02.945Z, 30.39
2023-03-07T00:55:02.962Z, 30.38
2023-03-07T00:56:02.962Z, 30.40
2023-03-07T00:57:02.988Z, 30.40
2023-03-07T00:58:02.980Z, 30.41
2023-03-07T00:59:03.002Z, 30.39
2023-03-07T01:00:02.986Z, 30.36
2023-03-07T01:01:03.072Z, 30.35
2023-03-07T01:02:02.992Z, 30.31
2023-03-07T01:03:02.988Z, 30.29
2023-03-07T01:04:03.107Z, 30.30
2023-03-07T01:05:03.053Z, 30.33
2023-03-07T01:06:03.056Z, 30.32
2023-03-07T01:07:03.045Z, 30.28
2023-03-07T01:08:03.046Z, 30.25
2023-03-07T01:09:03.053Z, 30.24
2023-03-07T01:10:03.059Z, 30.24
2023-03-07T01:11:03.100Z, 30.21
2023-03-07T01:12:03.173Z, 30.18
2023-03-07T01:13:03.145Z, 30.21
2023-03-07T01:14:03.194Z, 30.20
2023-03-07T01:15:03.188Z, 30.16
2023-03-07T01:16:03.202Z, 30.14
2023-03-07T01:17:03.184Z, 30.13
2023-03-07T01:18:03.226Z, 30.12
2023-03-07T01:19:03.186Z, 30.10
2023-03-07T01:20:03.246Z, 30.11
2023-03-07T01:21:03.267Z, 30.09
2023-03-07T01:22:03.280Z, 30.08
2023-03-07T01:23:03.241Z, 30.10
2023-03-07T01:24:03.250Z, 30.08
2023-03-07T01:25:03.299Z, 30.03
2023-03-07T01:26:03.287Z, 30.02
2023-03-07T01:27:03.285Z, 30.00
2023-03-07T01:28:03.289Z, 30.03
2023-03-07T01:29:03.371Z, 30.05
2023-03-07T01:30:03.333Z, 30.02
2023-03-07T01:31:03.387Z, 30.00
2023-03-07T01:32:03.516Z, 29.99
2023-03-07T01:33:03.359Z, 29.96
2023-03-07T01:34:03.387Z, 29.94
2023-03-07T01:35:03.364Z, 29.95
2023-03-07T01:36:03.494Z, 29.94
2023-03-07T01:37:03.434Z, 29.94
2023-03-07T01:38:03.431Z, 29.94
2023-03-07T01:39:03.465Z, 29.91
2023-03-07T01:40:03.442Z, 29.93
2023-03-07T01:41:03.466Z, 29.91
2023-03-07T01:42:03.437Z, 29.91
2023-03-07T01:43:03.449Z, 29.88
2023-03-07T01:44:03.435Z, 29.90
2023-03-07T01:45:03.511Z, 29.91
2023-03-07T01:46:03.549Z, 29.87
2023-03-07T01:47:03.523Z, 29.83
2023-03-07T01:48:03.500Z, 29.82
2023-03-07T01:49:03.499Z, 29.82
2023-03-07T01:50:03.540Z, 29.77
2023-03-07T01:51:03.558Z, 29.80
2023-03-07T01:52:03.579Z, 29.79
2023-03-07T01:53:03.617Z, 29.78
2023-03-07T01:54:03.576Z, 29.76
2023-03-07T01:55:03.610Z, 29.72
2023-03-07T01:56:03.584Z, 29.72
2023-03-07T01:57:03.583Z, 29.72
2023-03-07T01:58:03.598Z, 29.68
2023-03-07T01:59:03.594Z, 29.63
2023-03-07T02:00:03.587Z, 29.63
2023-03-07T02:01:03.703Z, 29.62
2023-03-07T02:02:03.692Z, 29.60
2023-03-07T02:03:03.674Z, 29.60
2023-03-07T02:04:03.736Z, 29.58
2023-03-07T02:05:03.674Z, 29.57
2023-03-07T02:06:03.677Z, 29.57
2023-03-07T02:07:03.763Z, 29.58
2023-03-07T02:08:03.751Z, 29.56
2023-03-07T02:09:03.762Z, 29.56
2023-03-07T02:10:03.767Z, 29.54
2023-03-07T02:11:03.766Z, 29.52
2023-03-07T02:12:03.806Z, 29.53
2023-03-07T02:13:03.833Z, 29.52
2023-03-07T02:14:03.843Z, 29.50
2023-03-07T02:15:03.863Z, 29.47
2023-03-07T02:16:03.949Z, 29.47
2023-03-07T02:17:03.922Z, 29.48
2023-03-07T02:18:03.944Z, 29.45
2023-03-07T02:19:03.912Z, 29.45
2023-03-07T02:20:03.963Z, 29.46
2023-03-07T02:21:03.994Z, 29.44
2023-03-07T02:22:03.953Z, 29.46
2023-03-07T02:23:03.936Z, 29.44
2023-03-07T02:24:03.979Z, 29.40
2023-03-07T02:25:03.992Z, 29.38
2023-03-07T02:26:04.012Z, 29.40
2023-03-07T02:27:03.961Z, 29.41
2023-03-07T02:28:03.964Z, 29.38
2023-03-07T02:29:03.979Z, 29.38
2023-03-07T02:30:03.984Z, 29.36
2023-03-07T02:31:04.091Z, 29.34
2023-03-07T02:32:04.001Z, 29.31
2023-03-07T02:33:03.956Z, 29.31
2023-03-07T02:34:04.047Z, 29.33
2023-03-07T02:35:04.108Z, 29.27
2023-03-07T02:36:04.115Z, 29.25
2023-03-07T02:37:04.084Z, 29.22
2023-03-07T02:38:04.141Z, 29.18
2023-03-07T02:39:04.139Z, 29.20
2023-03-07T02:40:04.122Z, 29.20
2023-03-07T02:41:04.123Z, 29.19
2023-03-07T02:42:04.131Z, 29.19
2023-03-07T02:43:04.124Z, 29.19
2023-03-07T02:44:04.135Z, 29.20
2023-03-07T02:45:04.128Z, 29.18
2023-03-07T02:46:04.168Z, 29.18
2023-03-07T02:47:04.140Z, 29.17
2023-03-07T02:48:04.143Z, 29.16
2023-03-07T02:49:04.142Z, 29.14
2023-03-07T02:50:04.148Z, 29.12
2023-03-07T02:51:04.167Z, 29.12
2023-03-07T02:52:04.186Z, 29.13
2023-03-07T02:53:04.192Z, 29.10
2023-03-07T02:54:04.185Z, 29.09
2023-03-07T02:55:04.259Z, 29.09
2023-03-07T02:56:04.250Z, 29.09
2023-03-07T02:57:04.251Z, 29.08
2023-03-07T02:58:04.249Z, 29.06
2023-03-07T02:59:04.294Z, 29.04
2023-03-07T03:00:04.278Z, 29.03
2023-03-07T03:01:04.280Z, 29.03
2023-03-07T03:02:04.296Z, 29.04
2023-03-07T03:03:04.280Z, 29.02
2023-03-07T03:04:04.279Z, 29.02
2023-03-07T03:05:04.324Z, 29.03
2023-03-07T03:06:04.274Z, 29.02
2023-03-07T03:07:04.283Z, 28.98
2023-03-07T03:08:04.277Z, 28.97
2023-03-07T03:09:04.276Z, 29.00
2023-03-07T03:10:04.377Z, 28.96
2023-03-07T03:11:04.345Z, 28.95
2023-03-07T03:12:04.353Z, 28.96
2023-03-07T03:13:04.340Z, 28.96
2023-03-07T03:14:04.338Z, 28.96
2023-03-07T03:15:04.366Z, 28.94
2023-03-07T03:19:04.372Z, 28.92
2023-03-07T03:20:04.392Z, 28.87
2023-03-07T03:21:04.377Z, 28.83
2023-03-07T03:22:04.379Z, 28.83
2023-03-07T03:23:04.382Z, 28.82
2023-03-07T03:24:04.392Z, 28.83
2023-03-07T03:25:04.397Z, 28.85
2023-03-07T03:26:04.447Z, 28.85
2023-03-07T03:27:04.431Z, 28.81
2023-03-07T03:28:04.426Z, 28.79
2023-03-07T03:29:04.429Z, 28.74
2023-03-07T03:30:04.431Z, 28.73
2023-03-07T03:31:04.475Z, 28.76
2023-03-07T03:32:04.479Z, 28.75
2023-03-07T03:33:04.432Z, 28.73
2023-03-07T03:34:04.474Z, 28.73
2023-03-07T03:35:04.460Z, 28.70
2023-03-07T03:36:04.517Z, 28.73
2023-03-07T03:37:04.511Z, 28.68
2023-03-07T03:38:04.503Z, 28.67
2023-03-07T03:39:04.535Z, 28.67
2023-03-07T03:40:04.543Z, 28.67
2023-03-07T03:41:04.568Z, 28.67
2023-03-07T03:42:04.590Z, 28.70
2023-03-07T03:43:04.535Z, 28.66
2023-03-07T03:44:04.542Z, 28.63
2023-03-07T03:45:04.542Z, 28.60
2023-03-07T03:46:04.557Z, 28.60
2023-03-07T03:47:04.555Z, 28.60
2023-03-07T03:48:04.560Z, 28.59
2023-03-07T03:49:04.587Z, 28.61
2023-03-07T03:50:04.600Z, 28.61
2023-03-07T03:51:04.607Z, 28.60
2023-03-07T03:52:04.613Z, 28.58
2023-03-07T03:53:04.625Z, 28.56
2023-03-07T03:54:04.644Z, 28.54
2023-03-07T03:55:04.640Z, 28.52
2023-03-07T03:56:04.634Z, 28.53
2023-03-07T03:57:04.688Z, 28.50
2023-03-07T03:58:04.685Z, 28.52
2023-03-07T03:59:04.707Z, 28.49
2023-03-07T04:00:04.710Z, 28.49
2023-03-07T04:01:04.736Z, 28.50
2023-03-07T04:02:04.863Z, 28.49
2023-03-07T04:03:04.812Z, 28.47
2023-03-07T04:04:04.744Z, 28.48
2023-03-07T04:05:04.739Z, 28.46
2023-03-07T04:06:04.748Z, 28.44
2023-03-07T04:07:04.757Z, 28.46
2023-03-07T04:08:04.766Z, 28.43
2023-03-07T04:09:04.843Z, 28.40
2023-03-07T04:10:04.858Z, 28.39
2023-03-07T04:11:04.925Z, 28.40
2023-03-07T04:12:04.875Z, 28.40
2023-03-07T04:13:04.889Z, 28.40
2023-03-07T04:14:04.902Z, 28.36
2023-03-07T04:15:04.892Z, 28.34
2023-03-07T04:16:04.965Z, 28.34
2023-03-07T04:17:04.912Z, 28.36
2023-03-07T04:18:04.955Z, 28.33
2023-03-07T04:19:04.956Z, 28.34
2023-03-07T04:20:04.956Z, 28.33
2023-03-07T04:21:04.929Z, 28.38
2023-03-07T04:22:04.920Z, 28.40
2023-03-07T04:23:04.962Z, 28.38
2023-03-07T04:24:04.936Z, 28.37
2023-03-07T04:25:04.973Z, 28.36
2023-03-07T04:26:05.101Z, 28.35
2023-03-07T04:27:04.973Z, 28.32
2023-03-07T04:28:04.977Z, 28.28
2023-03-07T04:29:05.034Z, 28.27
2023-03-07T04:30:05.023Z, 28.27
2023-03-07T04:31:05.008Z, 28.52
2023-03-07T04:32:05.261Z, 29.70
2023-03-07T04:33:05.057Z, 30.16
2023-03-07T04:34:05.035Z, 34.66
2023-03-07T04:35:05.041Z, 41.56
2023-03-07T04:36:05.102Z, 45.21
2023-03-07T04:37:05.054Z, 43.28
2023-03-07T04:38:05.153Z, 39.32
2023-03-07T04:39:05.079Z, 35.75
2023-03-07T04:40:05.101Z, 32.95
2023-03-07T04:41:05.147Z, 31.37
2023-03-07T04:42:05.150Z, 30.24
2023-03-07T04:43:05.130Z, 29.62
2023-03-07T04:44:05.130Z, 29.15
2023-03-07T04:45:05.140Z, 31.05
2023-03-07T04:46:05.248Z, 35.45
2023-03-07T04:47:05.194Z, 38.41
2023-03-07T04:48:05.217Z, 40.29
2023-03-07T04:49:05.196Z, 41.46
2023-03-07T04:50:05.258Z, 42.14
2023-03-07T04:51:05.269Z, 42.66
2023-03-07T04:52:05.278Z, 43.25
2023-03-07T04:53:05.277Z, 43.74
2023-03-07T04:54:05.272Z, 44.20
2023-03-07T04:55:05.288Z, 44.56
2023-03-07T04:56:05.270Z, 45.03
2023-03-07T04:57:05.283Z, 45.72
2023-03-07T04:58:05.258Z, 46.41
2023-03-07T04:59:05.280Z, 47.26
2023-03-07T05:00:05.303Z, 48.71
2023-03-07T05:01:05.532Z, 50.72
2023-03-07T05:02:05.341Z, 52.57
2023-03-07T05:03:05.347Z, 53.19
2023-03-07T05:04:05.384Z, 54.03
2023-03-07T05:05:05.341Z, 56.21
2023-03-07T05:06:05.343Z, 58.99
2023-03-07T05:07:05.327Z, 65.25
2023-03-07T05:08:05.406Z, 60.47
2023-03-07T05:09:05.381Z, 52.39
2023-03-07T05:10:05.363Z, 53.53
2023-03-07T05:11:05.439Z, 54.90
2023-03-07T05:12:05.419Z, 57.02
2023-03-07T05:13:05.472Z, 59.60
2023-03-07T05:14:05.426Z, 67.46
2023-03-07T05:15:05.436Z, 56.51
2023-03-07T05:16:05.475Z, 52.78
2023-03-07T05:17:05.449Z, 54.35
2023-03-07T05:18:05.434Z, 55.58
2023-03-07T05:19:06.262Z, 57.99
2023-03-07T05:20:05.435Z, 60.98
2023-03-07T05:21:05.447Z, 66.81
2023-03-07T05:22:05.476Z, 54.05
2023-03-07T05:23:05.465Z, 53.93
2023-03-07T05:24:05.495Z, 54.71
2023-03-07T05:25:05.550Z, 55.39
2023-03-07T05:26:05.514Z, 55.71
2023-03-07T05:27:05.546Z, 56.06
2023-03-07T05:28:05.604Z, 52.26
2023-03-07T05:29:05.623Z, 48.83
2023-03-07T05:30:05.596Z, 46.19
2023-03-07T05:31:05.650Z, 44.37
2023-03-07T05:32:05.655Z, 43.05
2023-03-07T05:33:05.629Z, 45.44
2023-03-07T05:34:05.620Z, 49.88
2023-03-07T05:35:05.662Z, 53.09
2023-03-07T05:36:05.635Z, 54.97
2023-03-07T05:37:05.639Z, 54.13
2023-03-07T05:38:05.617Z, 53.00
2023-03-07T05:39:05.647Z, 52.05
2023-03-07T05:40:05.688Z, 50.97
2023-03-07T05:41:05.726Z, 49.89
2023-03-07T05:42:05.677Z, 48.88
2023-03-07T05:43:05.708Z, 47.96
2023-03-07T05:44:05.715Z, 47.16
2023-03-07T05:45:05.761Z, 46.42
2023-03-07T05:46:05.821Z, 45.69
2023-03-07T05:47:05.721Z, 44.84
2023-03-07T05:48:05.761Z, 43.86
2023-03-07T05:49:05.768Z, 45.93
2023-03-07T05:50:05.790Z, 52.38
2023-03-07T05:51:05.812Z, 56.06
2023-03-07T05:52:05.786Z, 54.90
2023-03-07T05:53:05.785Z, 53.07
2023-03-07T05:54:05.774Z, 51.77
2023-03-07T05:55:05.773Z, 50.72
2023-03-07T05:56:05.792Z, 50.02
2023-03-07T05:57:05.798Z, 49.39
2023-03-07T05:58:05.791Z, 48.69
2023-03-07T05:59:05.784Z, 47.96
2023-03-07T06:00:05.797Z, 47.25
2023-03-07T06:01:05.834Z, 46.68
2023-03-07T06:02:05.823Z, 46.62
2023-03-07T06:03:05.860Z, 49.27
2023-03-07T06:04:05.990Z, 51.68
2023-03-07T06:05:05.904Z, 54.50
2023-03-07T06:06:05.916Z, 57.97
2023-03-07T06:07:05.900Z, 62.52
2023-03-07T06:08:05.877Z, 63.44
2023-03-07T06:09:05.877Z, 52.67
2023-03-07T06:10:05.949Z, 53.57
2023-03-07T06:11:05.911Z, 55.00
2023-03-07T06:12:05.929Z, 56.97
2023-03-07T06:13:05.966Z, 59.39
2023-03-07T06:14:05.926Z, 65.43
2023-03-07T06:15:06.018Z, 59.34
2023-03-07T06:16:06.067Z, 53.31
2023-03-07T06:17:06.019Z, 54.51
2023-03-07T06:18:05.986Z, 55.87
2023-03-07T06:19:05.989Z, 56.79
2023-03-07T06:20:06.047Z, 57.20
2023-03-07T06:21:06.037Z, 57.55
2023-03-07T06:22:06.060Z, 57.88
2023-03-07T06:23:06.072Z, 57.90
2023-03-07T06:24:06.077Z, 57.94
2023-03-07T06:25:06.047Z, 57.86
2023-03-07T06:26:06.061Z, 57.83
2023-03-07T06:27:06.058Z, 57.81
2023-03-07T06:28:06.054Z, 57.65
2023-03-07T06:29:06.060Z, 57.56
2023-03-07T06:30:06.080Z, 57.40
2023-03-07T06:31:06.154Z, 57.26
2023-03-07T06:32:06.190Z, 57.13
2023-03-07T06:33:06.115Z, 56.92
2023-03-07T06:34:06.117Z, 56.82
2023-03-07T06:35:06.127Z, 56.69
2023-03-07T06:36:06.134Z, 56.50
2023-03-07T06:37:06.135Z, 56.31
2023-03-07T06:38:06.193Z, 56.05
2023-03-07T06:39:06.219Z, 55.88
2023-03-07T06:40:06.303Z, 55.78
2023-03-07T06:41:06.267Z, 55.58
2023-03-07T06:46:59.370Z, 54.59
2023-03-07T06:47:06.327Z, 54.48
2023-03-07T06:48:06.305Z, 54.26
2023-03-07T06:49:06.296Z, 54.11
2023-03-07T06:50:06.288Z, 53.91
2023-03-07T06:51:06.394Z, 53.80
2023-03-07T06:52:06.386Z, 53.64
2023-03-07T06:53:06.377Z, 53.37
2023-03-07T06:54:06.380Z, 53.23
2023-03-07T06:55:06.379Z, 53.04
2023-03-07T06:56:06.426Z, 52.92
2023-03-07T06:57:06.401Z, 52.83
2023-03-07T06:58:06.467Z, 52.71
2023-03-07T06:59:06.455Z, 52.57
2023-03-07T07:00:06.493Z, 52.36
2023-03-07T07:01:06.458Z, 52.31
2023-03-07T07:02:06.523Z, 52.12
2023-03-07T07:03:06.608Z, 51.94
2023-03-07T07:04:06.488Z, 51.85
2023-03-07T07:05:06.497Z, 51.73
2023-03-07T07:06:06.471Z, 51.63
2023-03-07T07:07:06.481Z, 51.44
2023-03-07T07:08:06.493Z, 51.27
2023-03-07T07:09:06.498Z, 51.17
2023-03-07T07:10:06.523Z, 51.06
2023-03-07T07:11:06.494Z, 50.95
2023-03-07T07:12:06.509Z, 50.84
2023-03-07T07:13:06.516Z, 50.77
2023-03-07T07:14:06.615Z, 50.64
2023-03-07T07:15:06.594Z, 50.50
2023-03-07T07:16:06.659Z, 50.33
2023-03-07T07:17:06.581Z, 50.26
2023-03-07T07:18:06.594Z, 50.20
2023-03-07T07:19:06.609Z, 50.09
2023-03-07T07:20:06.612Z, 50.00
2023-03-07T07:21:06.665Z, 49.89
2023-03-07T07:22:06.714Z, 49.76
2023-03-07T07:23:06.731Z, 49.63
2023-03-07T07:24:06.795Z, 49.56
2023-03-07T07:25:06.766Z, 49.47
2023-03-07T07:26:06.725Z, 49.35
2023-03-07T07:27:06.763Z, 49.24
2023-03-07T07:28:06.719Z, 49.12
2023-03-07T07:29:06.744Z, 49.09
2023-03-07T07:30:06.724Z, 49.00
2023-03-07T07:31:06.733Z, 48.99
2023-03-07T07:32:06.832Z, 48.89
2023-03-07T07:33:06.929Z, 48.79
2023-03-07T07:34:06.785Z, 48.69
2023-03-07T07:35:06.790Z, 48.59
2023-03-07T07:36:06.841Z, 48.49
2023-03-07T07:37:06.794Z, 48.36
2023-03-07T07:38:06.838Z, 48.26
2023-03-07T07:39:06.860Z, 48.26
2023-03-07T07:40:06.832Z, 48.21
2023-03-07T07:41:06.889Z, 48.04
2023-03-07T07:42:06.881Z, 47.98
2023-03-07T07:43:06.869Z, 47.94
2023-03-07T07:44:06.864Z, 47.91
2023-03-07T07:45:06.914Z, 47.81
2023-03-07T07:46:06.972Z, 47.74
2023-03-07T07:47:06.892Z, 47.66
2023-03-07T07:48:06.897Z, 47.52
2023-03-07T07:49:06.891Z, 47.56
2023-03-07T07:50:06.955Z, 47.46
2023-03-07T07:51:06.922Z, 47.36
2023-03-07T07:52:06.928Z, 47.26
2023-03-07T07:53:06.966Z, 47.16
2023-03-07T07:54:07.018Z, 47.13
2023-03-07T07:55:07.034Z, 47.08
2023-03-07T07:56:07.020Z, 46.99
2023-03-07T07:57:07.020Z, 46.97
2023-03-07T07:58:07.010Z, 46.89
2023-03-07T07:59:07.005Z, 46.82
2023-03-07T08:00:07.020Z, 46.71
2023-03-07T08:01:07.058Z, 46.67
2023-03-07T08:02:07.097Z, 46.61
2023-03-07T08:03:07.157Z, 46.53
2023-03-07T08:04:07.045Z, 46.53
2023-03-07T08:05:07.043Z, 46.44
2023-03-07T08:06:07.059Z, 46.38
2023-03-07T08:07:07.064Z, 46.34
2023-03-07T08:08:07.062Z, 46.19
2023-03-07T08:09:07.124Z, 46.16
2023-03-07T08:10:07.137Z, 46.14
2023-03-07T08:11:07.137Z, 46.11
2023-03-07T08:12:07.181Z, 46.03
2023-03-07T08:13:07.196Z, 45.97
2023-03-07T08:14:07.159Z, 45.97
2023-03-07T08:15:07.244Z, 45.93
2023-03-07T08:16:07.252Z, 45.86
2023-03-07T08:17:07.216Z, 45.78
2023-03-07T08:18:07.249Z, 45.73
2023-03-07T08:19:07.206Z, 45.66
2023-03-07T08:20:07.222Z, 45.55
2023-03-07T08:21:07.212Z, 45.52
2023-03-07T08:22:07.295Z, 45.45
2023-03-07T08:23:07.332Z, 45.32
2023-03-07T08:24:07.262Z, 45.35
2023-03-07T08:25:07.275Z, 45.32
2023-03-07T08:26:07.259Z, 45.20
2023-03-07T08:27:07.311Z, 45.12
2023-03-07T08:28:07.297Z, 45.06
2023-03-07T08:29:07.392Z, 44.99
2023-03-07T08:30:07.397Z, 44.95
2023-03-07T08:31:07.437Z, 44.91
2023-03-07T08:32:07.424Z, 44.88
2023-03-07T08:33:07.487Z, 44.83
2023-03-07T08:34:07.402Z, 44.79
2023-03-07T08:35:07.408Z, 44.76
2023-03-07T08:36:07.526Z, 44.69
2023-03-07T08:37:07.387Z, 44.68
2023-03-07T08:38:07.400Z, 44.60
2023-03-07T08:39:07.413Z, 44.58
2023-03-07T08:40:07.423Z, 44.52
2023-03-07T08:41:07.415Z, 44.46
2023-03-07T08:42:07.503Z, 44.46
2023-03-07T08:43:07.430Z, 44.38
2023-03-07T08:44:07.428Z, 44.35
2023-03-07T08:45:07.507Z, 44.30
2023-03-07T08:46:07.539Z, 44.26
2023-03-07T08:47:07.498Z, 44.26
2023-03-07T08:48:07.533Z, 44.13
2023-03-07T08:49:07.540Z, 44.15
2023-03-07T08:50:07.521Z, 44.12
2023-03-07T08:51:07.555Z, 44.12
2023-03-07T08:52:07.516Z, 43.99
2023-03-07T08:53:07.596Z, 43.94
2023-03-07T08:54:07.611Z, 43.93
2023-03-07T08:55:07.576Z, 43.89
2023-03-07T08:56:07.580Z, 43.79
2023-03-07T08:57:07.602Z, 43.79
2023-03-07T08:58:07.620Z, 43.71
2023-03-07T08:59:07.605Z, 43.73
2023-03-07T09:00:07.623Z, 43.70
2023-03-07T09:01:07.673Z, 43.60
2023-03-07T09:02:07.731Z, 43.58
2023-03-07T09:03:07.658Z, 43.63
2023-03-07T09:04:07.687Z, 43.53
2023-03-07T09:05:07.700Z, 43.48
2023-03-07T09:06:07.663Z, 43.46
2023-03-07T09:07:07.756Z, 43.42
2023-03-07T09:08:07.787Z, 43.35
2023-03-07T09:09:07.762Z, 43.31
2023-03-07T09:10:07.725Z, 43.29
2023-03-07T09:11:07.748Z, 43.20
2023-03-07T09:12:07.742Z, 43.18
2023-03-07T09:13:07.767Z, 43.09
2023-03-07T09:14:07.744Z, 43.04
2023-03-07T09:15:07.743Z, 42.98
2023-03-07T09:16:07.774Z, 42.98
2023-03-07T09:17:07.754Z, 42.95
2023-03-07T09:18:07.768Z, 42.96
2023-03-07T09:19:07.778Z, 42.90
2023-03-07T09:20:07.820Z, 42.87
2023-03-07T09:21:07.870Z, 42.86
2023-03-07T09:22:07.841Z, 42.79
2023-03-07T09:23:07.844Z, 42.77
2023-03-07T09:24:07.848Z, 42.73
2023-03-07T09:25:07.871Z, 42.72
2023-03-07T09:26:07.873Z, 42.58
2023-03-07T09:27:07.862Z, 42.53
2023-03-07T09:28:07.869Z, 42.49
2023-03-07T09:29:07.876Z, 42.49
2023-03-07T09:30:07.956Z, 42.50
2023-03-07T09:31:07.971Z, 42.49
2023-03-07T09:32:08.015Z, 42.47
2023-03-07T09:33:07.969Z, 42.40
2023-03-07T09:34:07.943Z, 42.37
2023-03-07T09:35:08.019Z, 42.36
2023-03-07T09:36:08.082Z, 42.27
2023-03-07T09:37:07.997Z, 42.20
2023-03-07T09:38:07.985Z, 42.20
2023-03-07T09:39:07.988Z, 42.17
2023-03-07T09:40:08.010Z, 42.07
2023-03-07T09:41:07.994Z, 42.05
2023-03-07T09:42:08.007Z, 42.03
2023-03-07T09:43:08.045Z, 42.03
2023-03-07T09:44:08.035Z, 41.95
2023-03-07T09:45:08.113Z, 41.92
2023-03-07T09:46:08.216Z, 41.86
2023-03-07T09:47:08.110Z, 41.89
2023-03-07T09:48:08.098Z, 41.82
2023-03-07T09:49:08.156Z, 41.79
2023-03-07T09:50:08.145Z, 41.76
2023-03-07T09:51:11.916Z, 41.82
2023-03-07T09:52:10.250Z, 41.72
2023-03-07T09:53:08.142Z, 41.71
2023-03-07T09:54:08.137Z, 41.63
2023-03-07T09:55:08.132Z, 41.62
2023-03-07T09:56:08.138Z, 41.60
2023-03-07T09:57:08.160Z, 41.54
2023-03-07T09:58:08.171Z, 41.50
2023-03-07T09:59:20.657Z, 41.48
2023-03-07T10:00:08.190Z, 41.43
2023-03-07T10:01:08.202Z, 41.35
2023-03-07T10:02:08.209Z, 41.30
2023-03-07T10:03:08.273Z, 41.26
2023-03-07T10:04:08.272Z, 41.23
2023-03-07T10:05:08.256Z, 41.18
2023-03-07T10:06:08.247Z, 41.16
2023-03-07T10:07:08.255Z, 41.17
2023-03-07T10:08:08.282Z, 41.11
2023-03-07T10:09:08.305Z, 41.11
2023-03-07T10:10:08.294Z, 41.08
2023-03-07T10:11:08.292Z, 41.03
2023-03-07T10:12:08.369Z, 41.09
2023-03-07T10:13:08.372Z, 40.99
2023-03-07T10:14:08.398Z, 40.98
2023-03-07T10:15:08.461Z, 40.95
2023-03-07T10:16:08.391Z, 40.90
2023-03-07T10:17:08.617Z, 40.80
2023-03-07T10:18:08.385Z, 40.77
2023-03-07T10:19:08.384Z, 40.74
2023-03-07T10:20:08.444Z, 40.68
2023-03-07T10:21:08.408Z, 40.63
2023-03-07T10:22:08.429Z, 40.63
2023-03-07T10:23:08.440Z, 40.62
2023-03-07T10:24:08.422Z, 40.58
2023-03-07T10:25:08.494Z, 40.55
2023-03-07T10:26:08.499Z, 40.51
2023-03-07T10:27:08.508Z, 40.48
2023-03-07T10:28:08.477Z, 40.39
2023-03-07T10:29:08.481Z, 40.44
2023-03-07T10:30:08.477Z, 40.45
2023-03-07T10:31:08.482Z, 40.36
2023-03-07T10:32:08.587Z, 40.38
2023-03-07T10:33:08.506Z, 40.36
2023-03-07T10:34:08.520Z, 40.37
2023-03-07T10:35:08.519Z, 40.30
2023-03-07T10:36:08.674Z, 40.27
2023-03-07T10:37:09.506Z, 40.23
2023-03-07T10:38:08.595Z, 40.22
2023-03-07T10:39:08.579Z, 40.27
2023-03-07T10:40:08.626Z, 40.24
2023-03-07T10:41:08.600Z, 40.21
2023-03-07T10:42:08.606Z, 40.20
2023-03-07T10:43:08.657Z, 40.11
2023-03-07T10:44:08.626Z, 40.07
2023-03-07T10:45:08.690Z, 40.09
2023-03-07T10:46:22.252Z, 40.09
2023-03-07T10:47:08.716Z, 40.04
2023-03-07T10:48:08.669Z, 40.05
2023-03-07T10:49:10.508Z, 40.00
2023-03-07T10:50:08.674Z, 39.95
2023-03-07T10:51:08.734Z, 39.87
2023-03-07T10:52:08.711Z, 39.85
2023-03-07T10:53:08.704Z, 39.85
2023-03-07T10:54:08.702Z, 39.79
2023-03-07T10:55:08.716Z, 39.81
2023-03-07T10:56:08.756Z, 39.77
2023-03-07T10:57:08.784Z, 39.71
2023-03-07T10:58:08.813Z, 39.73
2023-03-07T10:59:08.806Z, 39.66
2023-03-07T11:00:08.794Z, 39.65
2023-03-07T11:01:08.910Z, 39.85
2023-03-07T11:02:08.790Z, 41.10
2023-03-07T11:03:08.792Z, 41.74
2023-03-07T11:04:08.811Z, 41.81
2023-03-07T11:05:08.851Z, 41.61
2023-03-07T11:06:08.795Z, 40.88
2023-03-07T11:07:08.804Z, 39.01
2023-03-07T11:08:08.785Z, 36.68
2023-03-07T11:09:08.820Z, 35.03
2023-03-07T11:10:08.808Z, 38.00
2023-03-07T11:11:08.811Z, 43.46
2023-03-07T11:12:08.804Z, 47.47
2023-03-07T11:13:08.824Z, 47.16
2023-03-07T11:14:08.854Z, 45.65
2023-03-07T11:15:08.901Z, 43.60
2023-03-07T11:16:11.401Z, 41.60
2023-03-07T11:17:08.892Z, 39.73
2023-03-07T11:18:08.874Z, 38.06
2023-03-07T11:19:08.873Z, 36.14
2023-03-07T11:20:08.873Z, 34.02
2023-03-07T11:21:08.881Z, 32.62
2023-03-07T11:22:08.932Z, 31.71
2023-03-07T11:23:08.916Z, 33.46
2023-03-07T11:24:08.930Z, 38.90
2023-03-07T11:25:08.909Z, 43.52
2023-03-07T11:26:08.943Z, 46.94
2023-03-07T11:27:08.969Z, 49.39
2023-03-07T11:28:08.993Z, 48.96
2023-03-07T11:29:09.011Z, 47.37
2023-03-07T11:30:08.995Z, 46.03
2023-03-07T11:31:09.093Z, 45.54
2023-03-07T11:32:09.144Z, 45.42
2023-03-07T11:33:09.119Z, 45.35
2023-03-07T11:34:09.069Z, 45.16
2023-03-07T11:35:09.105Z, 44.84
2023-03-07T11:36:09.191Z, 44.62
2023-03-07T11:37:09.122Z, 44.42
2023-03-07T11:38:09.087Z, 44.24
2023-03-07T11:39:09.088Z, 44.04
2023-03-07T11:40:09.078Z, 43.83
2023-03-07T11:41:09.088Z, 43.65
2023-03-07T11:42:09.196Z, 43.46
2023-03-07T11:43:09.135Z, 43.30
2023-03-07T11:44:09.174Z, 43.12
2023-03-07T11:45:09.145Z, 42.92
2023-03-07T11:46:09.268Z, 42.77
2023-03-07T11:47:09.167Z, 42.59
2023-03-07T11:48:09.218Z, 42.43
2023-03-07T11:49:09.201Z, 42.27
2023-03-07T11:50:09.215Z, 42.18
2023-03-07T11:51:09.259Z, 42.00
2023-03-07T11:52:09.268Z, 41.82
2023-03-07T11:53:09.254Z, 41.65
2023-03-07T11:54:09.250Z, 41.54
2023-03-07T11:55:09.249Z, 41.43
2023-03-07T11:56:09.256Z, 41.28
2023-03-07T11:57:09.240Z, 41.13
2023-03-07T11:58:09.249Z, 41.00
2023-03-07T11:59:09.263Z, 40.87
2023-03-07T12:00:09.265Z, 40.74
2023-03-07T12:01:11.584Z, 40.60
2023-03-07T12:02:09.286Z, 40.53
2023-03-07T12:03:09.397Z, 40.37
2023-03-07T12:04:09.343Z, 40.25
2023-03-07T12:05:09.334Z, 40.12
2023-03-07T12:06:09.547Z, 40.02
2023-03-07T12:07:09.456Z, 39.95
2023-03-07T12:08:09.436Z, 39.82
2023-03-07T12:09:09.413Z, 39.68
2023-03-07T12:10:09.408Z, 39.59
2023-03-07T12:11:09.458Z, 39.48
2023-03-07T12:12:09.440Z, 39.39
2023-03-07T12:13:09.443Z, 39.32
2023-03-07T12:14:09.502Z, 39.28
2023-03-07T12:15:09.516Z, 39.16
2023-03-07T12:16:09.545Z, 39.03
2023-03-07T12:17:09.490Z, 38.98
2023-03-07T12:18:09.537Z, 38.87
2023-03-07T12:19:09.515Z, 38.76
2023-03-07T12:20:09.509Z, 38.65
2023-03-07T12:21:09.520Z, 38.55
2023-03-07T12:22:09.515Z, 38.52
2023-03-07T12:23:09.586Z, 38.43
2023-03-07T12:24:09.551Z, 38.36
2023-03-07T12:25:09.544Z, 38.29
2023-03-07T12:26:09.588Z, 38.24
2023-03-07T12:27:09.598Z, 38.15
2023-03-07T12:28:09.608Z, 38.04
2023-03-07T12:29:09.585Z, 37.99
2023-03-07T12:30:09.628Z, 37.89
2023-03-07T12:31:09.613Z, 37.80
2023-03-07T12:32:09.924Z, 37.74
2023-03-07T12:33:09.816Z, 37.66
2023-03-07T12:34:09.654Z, 37.63
2023-03-07T12:35:09.659Z, 37.56